^^
Grace C. Lehan Memorial Weather Station Historical Data
Daily Summary for May 27, 2022 Units:  English    Metric   Both
Daily Weekly Monthly Yearly
  High: Low: Average:
Temperature: 79.3 °F 63.5 °F 69.4 °F
Dew Point: 69.8 °F 58.8 °F 64.8 °F
Humidity: 95% 70.7% 86%
Wind Speed: 2.7mph 0mph 0.5mph
Wind Gust: 11mph - -
Wind- - SSW
Pressure: 30.07 in 29.74 in -
Precipitation: 0.00 in    
 
 
Tabular Data for May 27, 2022
Time Temperature Dew Point Pressure Wind Wind Speed Wind Gust Humidity Rainfall Rate (Hourly) solar
00:00 64.3 °F 59 °F 30.07 in Calm   2 mph 83% 0.00 in 0 W/m2
00:09 64.3 °F 59 °F 30.07 in Calm     83% 0.00 in 0 W/m2
00:14 64.3 °F 59 °F 30.06 in Calm     83% 0.00 in 0 W/m2
00:19 64.3 °F 59 °F 30.06 in Calm     83% 0.00 in 0 W/m2
00:24 64.3 °F 59 °F 30.06 in Calm     83% 0.00 in 0 W/m2
00:29 64.3 °F 59 °F 30.06 in Calm     83% 0.00 in 0 W/m2
00:34 64.3 °F 59 °F 30.06 in Calm     83% 0.00 in 0 W/m2
00:39 64.2 °F 58.9 °F 30.05 in Calm     83% 0.00 in 0 W/m2
00:44 64.2 °F 58.9 °F 30.05 in Calm     83% 0.00 in 0 W/m2
00:49 64.2 °F 58.9 °F 30.04 in Calm     83% 0.00 in 0 W/m2
00:53 64.1 °F 58.8 °F 30.04 in Calm     83% 0.00 in 0 W/m2
00:59 64.1 °F 58.9 °F 30.05 in Calm     83.3% 0.00 in 0 W/m2
01:04 64.1 °F 59.1 °F 30.05 in Calm     84% 0.00 in 0 W/m2
01:09 64 °F 59.1 °F 30.04 in Calm     84% 0.00 in 0 W/m2
01:14 63.9 °F 59 °F 30.04 in Calm     84% 0.00 in 0 W/m2
01:19 63.8 °F 58.9 °F 30.03 in SSW 0.1 mph 3 mph 84% 0.00 in 0 W/m2
01:24 63.8 °F 58.9 °F 30.03 in SSW 0.1 mph 3 mph 84% 0.00 in 0 W/m2
01:29 63.7 °F 59 °F 30.03 in SSW 0.1 mph 3 mph 84.7% 0.00 in 0 W/m2
01:34 63.7 °F 59 °F 30.03 in Calm   3 mph 84.6% 0.00 in 0 W/m2
01:39 63.6 °F 59 °F 30.02 in Calm     85% 0.00 in 0 W/m2
01:44 63.6 °F 59 °F 30.02 in SSW 0.3 mph 3 mph 85% 0.00 in 0 W/m2
01:49 63.6 °F 59 °F 30.02 in Calm   3 mph 85% 0.00 in 0 W/m2
01:54 63.6 °F 59 °F 30.02 in Calm   3 mph 85% 0.00 in 0 W/m2
01:59 63.6 °F 59 °F 30.02 in SSW 0.1 mph 3 mph 85.2% 0.00 in 0 W/m2
02:04 63.5 °F 59.3 °F 30.02 in SSW 0.1 mph 3 mph 86% 0.00 in 0 W/m2
02:09 63.5 °F 59.3 °F 30.01 in Calm   1 mph 86% 0.00 in 0 W/m2
02:14 63.6 °F 59.3 °F 30.01 in Calm   1 mph 86% 0.00 in 0 W/m2
02:19 63.6 °F 59.3 °F 30.01 in Calm   2 mph 86% 0.00 in 0 W/m2
02:24 63.6 °F 59.4 °F 30.01 in Calm   2 mph 86% 0.00 in 0 W/m2
02:29 63.7 °F 59.4 °F 30.01 in Calm   2 mph 86% 0.00 in 0 W/m2
02:34 63.7 °F 59.4 °F 30.01 in Calm   2 mph 86% 0.00 in 0 W/m2
02:39 63.7 °F 59.4 °F 30.01 in Calm     86% 0.00 in 0 W/m2
02:44 63.7 °F 59.4 °F 30.00 in Calm   1 mph 86% 0.00 in 0 W/m2
02:49 63.7 °F 59.5 °F 30.00 in Calm   1 mph 86% 0.00 in 0 W/m2
02:54 63.8 °F 59.8 °F 30.00 in Calm   1 mph 86.9% 0.00 in 0 W/m2
02:59 63.8 °F 59.9 °F 30.00 in Calm   1 mph 87% 0.00 in 0 W/m2
03:04 63.8 °F 59.9 °F 30.00 in Calm   1 mph 87% 0.00 in 0 W/m2
03:09 63.9 °F 60.1 °F 29.99 in Calm   1 mph 87.5% 0.00 in 0 W/m2
03:14 64 °F 60.4 °F 29.99 in Calm   1 mph 88% 0.00 in 0 W/m2
03:19 64 °F 60.4 °F 29.99 in Calm   1 mph 88% 0.00 in 0 W/m2
03:24 63.9 °F 60.3 °F 29.99 in Calm   1 mph 88% 0.00 in 0 W/m2
03:29 63.9 °F 60.3 °F 29.99 in Calm   1 mph 88% 0.00 in 0 W/m2
03:34 64 °F 60.6 °F 29.98 in Calm   1 mph 88.6% 0.00 in 0 W/m2
03:39 64 °F 60.7 °F 29.98 in SSW 0.1 mph 4 mph 89% 0.00 in 0 W/m2
03:44 64 °F 60.7 °F 29.98 in Calm   4 mph 89% 0.00 in 0 W/m2
03:49 64 °F 60.7 °F 29.98 in Calm   4 mph 89% 0.00 in 0 W/m2
03:54 64 °F 60.8 °F 29.98 in Calm   4 mph 89.3% 0.00 in 0 W/m2
03:59 64 °F 61 °F 29.98 in Calm   4 mph 90% 0.00 in 0 W/m2
04:00 64 °F 61 °F 29.98 in Calm   4 mph 90% 0.00 in 0 W/m2
04:09 64 °F 61 °F 29.98 in Calm     90% 0.00 in 0 W/m2
04:14 64 °F 61 °F 29.97 in SSW 0.2 mph 2 mph 90% 0.00 in 0 W/m2
04:19 63.9 °F 60.9 °F 29.97 in Calm   2 mph 90% 0.00 in 0 W/m2
04:24 63.9 °F 61.1 °F 29.97 in SSW 0.2 mph 3 mph 90.7% 0.00 in 0 W/m2
04:29 63.9 °F 61.2 °F 29.97 in Calm   3 mph 91% 0.00 in 0 W/m2
04:34 63.8 °F 61.1 °F 29.97 in Calm   3 mph 91% 0.00 in 0 W/m2
04:39 63.8 °F 61.4 °F 29.97 in Calm   1 mph 91.9% 0.00 in 0 W/m2
04:44 63.8 °F 61.4 °F 29.97 in Calm   1 mph 92% 0.00 in 0 W/m2
04:49 63.8 °F 61.4 °F 29.96 in SSW 0.3 mph 4 mph 92% 0.00 in 0 W/m2
04:54 63.7 °F 61.4 °F 29.96 in SSW 0.2 mph 4 mph 92.2% 0.00 in 0 W/m2
04:59 63.7 °F 61.4 °F 29.96 in SSW 0.1 mph 4 mph 92.3% 0.00 in 0 W/m2
05:04 63.7 °F 61.6 °F 29.96 in Calm   4 mph 93% 0.00 in 0 W/m2
05:09 63.6 °F 61.6 °F 29.96 in Calm     93% 0.00 in 0 W/m2
05:14 63.7 °F 61.6 °F 29.96 in Calm     93% 0.00 in 0 W/m2
05:19 63.7 °F 61.6 °F 29.96 in Calm     93% 0.00 in 0 W/m2
05:24 63.7 °F 61.6 °F 29.96 in Calm     93% 0.00 in 0 W/m2
05:29 63.8 °F 61.7 °F 29.96 in Calm     93% 0.00 in 0 W/m2
05:34 63.8 °F 61.8 °F 29.96 in Calm     93.1% 0.00 in 0 W/m2
05:39 63.9 °F 62.1 °F 29.96 in Calm     94% 0.00 in 0 W/m2
05:44 63.9 °F 62.1 °F 29.96 in Calm     94% 0.00 in 0 W/m2
05:49 64 °F 62.2 °F 29.96 in Calm     94% 0.00 in 5 W/m2
05:54 64 °F 62.2 °F 29.96 in Calm     94% 0.00 in 7 W/m2
05:59 64.1 °F 62.3 °F 29.96 in Calm     94% 0.00 in 9 W/m2
06:04 64.1 °F 62.3 °F 29.96 in Calm     94% 0.00 in 14 W/m2
06:09 64.1 °F 62.3 °F 29.96 in Calm     94% 0.00 in 19 W/m2
06:14 64.2 °F 62.4 °F 29.96 in Calm     94% 0.00 in 26 W/m2
06:19 64.2 °F 62.5 °F 29.96 in Calm     94% 0.00 in 37 W/m2
06:24 64.3 °F 62.5 °F 29.95 in Calm     94% 0.00 in 42 W/m2
06:29 64.4 °F 62.6 °F 29.96 in Calm     94% 0.00 in 37 W/m2
06:34 64.4 °F 62.7 °F 29.96 in Calm     94% 0.00 in 28 W/m2
06:39 64.5 °F 62.7 °F 29.96 in SSW 0.1 mph 2 mph 94% 0.00 in 58 W/m2
06:44 64.6 °F 62.9 °F 29.96 in Calm   2 mph 94.1% 0.00 in 56 W/m2
06:49 64.7 °F 63.3 °F 29.96 in Calm   2 mph 95% 0.00 in 40 W/m2
06:54 64.8 °F 63.4 °F 29.96 in Calm   2 mph 95% 0.00 in 49 W/m2
06:59 64.9 °F 63.5 °F 29.96 in SSW 0.1 mph 2 mph 95% 0.00 in 53 W/m2
07:04 65 °F 63.6 °F 29.96 in Calm   2 mph 95% 0.00 in 65 W/m2
07:09 65.2 °F 63.7 °F 29.95 in Calm     95% 0.00 in 81 W/m2
07:14 65.3 °F 63.9 °F 29.95 in SSW 0.1 mph 2 mph 95% 0.00 in 74 W/m2
07:19 65.5 °F 64 °F 29.95 in Calm   2 mph 95% 0.00 in 67 W/m2
07:24 65.6 °F 64.1 °F 29.95 in Calm   2 mph 95% 0.00 in 70 W/m2
07:29 65.7 °F 64.2 °F 29.95 in Calm   2 mph 95% 0.00 in 67 W/m2
07:34 65.7 °F 64.3 °F 29.95 in Calm   2 mph 95% 0.00 in 69 W/m2
07:39 65.8 °F 64.3 °F 29.95 in Calm     95% 0.00 in 67 W/m2
07:44 65.9 °F 64.4 °F 29.94 in Calm     95% 0.00 in 77 W/m2
07:49 65.9 °F 64.4 °F 29.94 in Calm     95% 0.00 in 81 W/m2
07:54 66 °F 64.5 °F 29.94 in Calm     95% 0.00 in 76 W/m2
07:59 66.1 °F 64.6 °F 29.94 in Calm     95% 0.00 in 76 W/m2
08:00 66.1 °F 64.6 °F 29.94 in Calm     95% 0.00 in 76 W/m2
08:09 66.2 °F 64.7 °F 29.94 in Calm     95% 0.00 in 72 W/m2
08:14 66.3 °F 64.8 °F 29.94 in Calm     95% 0.00 in 97 W/m2
08:19 66.4 °F 64.9 °F 29.94 in Calm     95% 0.00 in 100 W/m2
08:24 66.5 °F 65 °F 29.94 in Calm     95% 0.00 in 77 W/m2
08:29 66.6 °F 65.2 °F 29.94 in SSW 0.1 mph 2 mph 95% 0.00 in 79 W/m2
08:34 66.7 °F 65.3 °F 29.94 in Calm   2 mph 95% 0.00 in 84 W/m2
08:39 66.8 °F 65.3 °F 29.94 in Calm     95% 0.00 in 114 W/m2
08:44 66.9 °F 65.4 °F 29.94 in Calm     95% 0.00 in 120 W/m2
08:49 67 °F 65.5 °F 29.94 in Calm   1 mph 95% 0.00 in 120 W/m2
08:54 67.1 °F 65.5 °F 29.94 in Calm   1 mph 94.6% 0.00 in 132 W/m2
08:59 67.2 °F 65.4 °F 29.94 in Calm   1 mph 94% 0.00 in 153 W/m2
09:04 67.3 °F 65.6 °F 29.93 in Calm   1 mph 94% 0.00 in 253 W/m2
09:09 67.5 °F 65.9 °F 29.93 in Calm   1 mph 94.5% 0.00 in 255 W/m2
09:14 67.7 °F 66 °F 29.93 in Calm   1 mph 94% 0.00 in 232 W/m2
09:19 68 °F 66.2 °F 29.93 in Calm   1 mph 94% 0.00 in 207 W/m2
09:24 68.2 °F 66.4 °F 29.92 in Calm   1 mph 94% 0.00 in 227 W/m2
09:29 68.5 °F 66.4 °F 29.92 in Calm   1 mph 93.1% 0.00 in 227 W/m2
09:34 68.8 °F 66.7 °F 29.92 in Calm   1 mph 93.2% 0.00 in 211 W/m2
09:39 69 °F 66.9 °F 29.92 in Calm   1 mph 93% 0.00 in 211 W/m2
09:44 69.3 °F 66.9 °F 29.92 in SSW 0.4 mph 3 mph 92.1% 0.00 in 272 W/m2
09:49 69.4 °F 66.9 °F 29.92 in SSW 0.1 mph 3 mph 91.6% 0.00 in 281 W/m2
09:54 69.7 °F 66.9 °F 29.92 in Calm   3 mph 91% 0.00 in 258 W/m2
09:59 69.9 °F 67.1 °F 29.92 in Calm   3 mph 90.8% 0.00 in 338 W/m2
10:04 70.1 °F 67 °F 29.92 in Calm   3 mph 90% 0.00 in 216 W/m2
10:09 70.2 °F 67 °F 29.92 in SSW 0.1 mph 2 mph 89.7% 0.00 in 185 W/m2
10:14 70.3 °F 67 °F 29.92 in SSW 0.3 mph 3 mph 89.2% 0.00 in 195 W/m2
10:19 70.3 °F 67 °F 29.91 in Calm   3 mph 89% 0.00 in 313 W/m2
10:24 70.5 °F 67.2 °F 29.91 in SSW 0.3 mph 3 mph 89.2% 0.00 in 316 W/m2
10:29 70.7 °F 67.3 °F 29.91 in SSW 0.3 mph 5 mph 89% 0.00 in 290 W/m2
10:34 71 °F 67.6 °F 29.91 in SSW 0.3 mph 5 mph 89% 0.00 in 367 W/m2
10:39 71.3 °F 67.7 °F 29.91 in SSW 0.2 mph 4 mph 88.3% 0.00 in 357 W/m2
10:44 71.6 °F 67.7 °F 29.91 in SSW 0.2 mph 4 mph 87.3% 0.00 in 294 W/m2
10:49 71.9 °F 67.8 °F 29.91 in SSW 0.4 mph 5 mph 87% 0.00 in 301 W/m2
10:54 72.1 °F 67.7 °F 29.91 in SW 0.5 mph 6 mph 86.1% 0.00 in 432 W/m2
10:59 72.2 °F 67.6 °F 29.91 in Calm   6 mph 85.3% 0.00 in 366 W/m2
11:04 72.4 °F 67.9 °F 29.91 in SW 0.3 mph 6 mph 85.5% 0.00 in 457 W/m2
11:09 72.6 °F 67.9 °F 29.90 in SW 0.2 mph 4 mph 85% 0.00 in 355 W/m2
11:14 72.8 °F 67.8 °F 29.90 in SW 1 mph 4 mph 84.2% 0.00 in 350 W/m2
11:19 73 °F 67.9 °F 29.90 in SW 0.8 mph 7 mph 84% 0.00 in 381 W/m2
11:24 73.2 °F 67.8 °F 29.90 in SW 0.5 mph 7 mph 83% 0.00 in 343 W/m2
11:29 73.4 °F 67.9 °F 29.90 in SW 0.7 mph 7 mph 83% 0.00 in 308 W/m2
11:34 73.5 °F 68 °F 29.90 in SW 0.8 mph 7 mph 83% 0.00 in 371 W/m2
11:39 73.5 °F 67.9 °F 29.90 in SW 1.1 mph 5 mph 82.7% 0.00 in 306 W/m2
11:44 73.6 °F 67.8 °F 29.89 in SW 0.8 mph 5 mph 82.2% 0.00 in 380 W/m2
11:49 73.4 °F 67.6 °F 29.89 in South 0.5 mph 5 mph 82% 0.00 in 388 W/m2
11:54 73.5 °F 67.7 °F 29.89 in South 0.4 mph 5 mph 82.1% 0.00 in 380 W/m2
11:59 73.8 °F 67.9 °F 29.89 in SSW 0.3 mph 5 mph 82.1% 0.00 in 336 W/m2
12:00 73.9 °F 68.1 °F 29.89 in Calm   5 mph 82% 0.00 in 297 W/m2
12:09 74.3 °F 68.1 °F 29.89 in SW 0.5 mph 3 mph 81.2% 0.00 in 366 W/m2
12:14 74.5 °F 68.3 °F 29.89 in SSW 0.6 mph 4 mph 81% 0.00 in 316 W/m2
12:19 74.5 °F 67.9 °F 29.88 in SSW 0.2 mph 4 mph 80% 0.00 in 271 W/m2
12:24 74.4 °F 67.9 °F 29.88 in SSW 0.2 mph 4 mph 80% 0.00 in 434 W/m2
12:29 74.6 °F 68.2 °F 29.88 in South 1.1 mph 4 mph 80.5% 0.00 in 454 W/m2
12:34 74.8 °F 68.5 °F 29.88 in SSE 0.2 mph 4 mph 80.8% 0.00 in 450 W/m2
12:39 75.2 °F 68.5 °F 29.88 in SSW 1 mph 5 mph 79.7% 0.00 in 489 W/m2
12:44 75.5 °F 69 °F 29.88 in West 0.3 mph 5 mph 80.3% 0.00 in 636 W/m2
12:49 76 °F 69.4 °F 29.88 in WSW 0.3 mph 5 mph 80% 0.00 in 636 W/m2
12:54 76.5 °F 69 °F 29.87 in SW 0.6 mph 5 mph 77.7% 0.00 in 613 W/m2
12:59 76.6 °F 68.9 °F 29.87 in WSW 0.3 mph 5 mph 77% 0.00 in 967 W/m2
13:04 77 °F 69.5 °F 29.87 in WSW 0.8 mph 5 mph 77.6% 0.00 in 918 W/m2
13:09 77.6 °F 69.3 °F 29.87 in SW 0.8 mph 6 mph 75.8% 0.00 in 817 W/m2
13:14 78 °F 69.7 °F 29.87 in West 0.7 mph 6 mph 75.7% 0.00 in 1069 W/m2
13:19 78.5 °F 69.8 °F 29.86 in SSW 1.1 mph 6 mph 74.7% 0.00 in 1106 W/m2
13:24 79 °F 69.4 °F 29.86 in SSW 0.5 mph 6 mph 72.3% 0.00 in 1039 W/m2
13:29 79.2 °F 69.2 °F 29.86 in SSW 0.4 mph 6 mph 71.5% 0.00 in 1020 W/m2
13:34 79 °F 68.9 °F 29.86 in South 1.2 mph 6 mph 71.3% 0.00 in 1020 W/m2
13:39 78.4 °F 68.4 °F 29.86 in South 1.2 mph 5 mph 71.5% 0.00 in 330 W/m2
13:44 77.9 °F 68.6 °F 29.86 in South 0.4 mph 5 mph 73.1% 0.00 in 350 W/m2
13:49 77.6 °F 68.8 °F 29.86 in Calm   5 mph 74.3% 0.00 in 355 W/m2
13:54 77.6 °F 68.8 °F 29.86 in South 0.9 mph 5 mph 74.3% 0.00 in 338 W/m2
13:59 77.6 °F 68.7 °F 29.86 in SSW 0.6 mph 5 mph 74.2% 0.00 in 415 W/m2
14:04 77.7 °F 68.7 °F 29.85 in SSW 1.2 mph 10 mph 74% 0.00 in 473 W/m2
14:09 77.8 °F 68.8 °F 29.85 in SE 0.9 mph 10 mph 74% 0.00 in 902 W/m2
14:14 77.8 °F 68.8 °F 29.85 in South 1.1 mph 10 mph 73.8% 0.00 in 889 W/m2
14:19 78.2 °F 69.3 °F 29.84 in SW 2.1 mph 10 mph 74.2% 0.00 in 905 W/m2
14:24 78.7 °F 69.6 °F 29.84 in WSW 0.7 mph 10 mph 73.5% 0.00 in 867 W/m2
14:29 79.1 °F 69.1 °F 29.84 in SSW 1.4 mph 10 mph 71.4% 0.00 in 816 W/m2
14:34 79.2 °F 69 °F 29.84 in SW 1.4 mph 10 mph 71% 0.00 in 768 W/m2
14:39 79.3 °F 68.9 °F 29.84 in South 1.3 mph 6 mph 70.7% 0.00 in 942 W/m2
14:44 79.1 °F 68.9 °F 29.83 in South 1.1 mph 6 mph 71% 0.00 in 670 W/m2
14:49 78.9 °F 68.8 °F 29.83 in South 1.2 mph 6 mph 71.4% 0.00 in 682 W/m2
14:54 78.9 °F 69.2 °F 29.83 in SSE 1.1 mph 6 mph 72.1% 0.00 in 650 W/m2
14:59 78.9 °F 68.8 °F 29.83 in South 2 mph 8 mph 71.4% 0.00 in 650 W/m2
15:04 78.6 °F 69 °F 29.83 in South 0.7 mph 8 mph 72.3% 0.00 in 503 W/m2
15:09 78.5 °F 68.8 °F 29.83 in SSW 1 mph 5 mph 72.2% 0.00 in 374 W/m2
15:14 78.3 °F 68.5 °F 29.83 in South 1.5 mph 5 mph 72% 0.00 in 297 W/m2
15:19 78 °F 68.4 °F 29.83 in South 1.4 mph 6 mph 72.5% 0.00 in 330 W/m2
15:24 77.7 °F 68.2 °F 29.83 in South 1.9 mph 7 mph 72.6% 0.00 in 248 W/m2
15:29 77.5 °F 68.2 °F 29.83 in South 0.6 mph 7 mph 73% 0.00 in 770 W/m2
15:34 77.7 °F 68.8 °F 29.82 in South 0.9 mph 7 mph 74% 0.00 in 756 W/m2
15:39 78.1 °F 69 °F 29.82 in South 1.5 mph 5 mph 73.7% 0.00 in 745 W/m2
15:44 78.3 °F 68.9 °F 29.82 in South 1.8 mph 6 mph 72.8% 0.00 in 807 W/m2
15:49 78.4 °F 68.9 °F 29.82 in SSE 1.6 mph 6 mph 72.7% 0.00 in 759 W/m2
15:54 78.2 °F 68.7 °F 29.82 in South 1.5 mph 6 mph 72.6% 0.00 in 445 W/m2
15:59 77.9 °F 68.6 °F 29.82 in South 0.8 mph 6 mph 73% 0.00 in 278 W/m2
16:00 77.7 °F 68.8 °F 29.82 in Calm   6 mph 74% 0.00 in 302 W/m2
16:09 77.5 °F 68.7 °F 29.82 in South 1 mph 5 mph 74.3% 0.00 in 360 W/m2
16:14 77.4 °F 68.9 °F 29.82 in South 0.6 mph 5 mph 75% 0.00 in 385 W/m2
16:19 77.3 °F 68.9 °F 29.82 in South 0.9 mph 5 mph 75.3% 0.00 in 218 W/m2
16:24 77.1 °F 68.6 °F 29.81 in South 1.7 mph 6 mph 75% 0.00 in 239 W/m2
16:29 76.9 °F 68.7 °F 29.81 in South 1.4 mph 6 mph 75.8% 0.00 in 264 W/m2
16:34 76.7 °F 68.7 °F 29.81 in South 0.7 mph 6 mph 76.3% 0.00 in 267 W/m2
16:39 76.5 °F 68.7 °F 29.81 in SSW 1.3 mph 6 mph 76.8% 0.00 in 227 W/m2
16:44 76.3 °F 68.7 °F 29.81 in South 0.7 mph 6 mph 77.2% 0.00 in 260 W/m2
16:49 76.3 °F 69 °F 29.81 in SSW 0.3 mph 6 mph 78.2% 0.00 in 260 W/m2
16:54 76.2 °F 68.8 °F 29.81 in South 1.9 mph 6 mph 78% 0.00 in 236 W/m2
16:59 75.9 °F 68.5 °F 29.81 in South 1.8 mph 7 mph 78% 0.00 in 241 W/m2
17:04 75.6 °F 68.6 °F 29.81 in South 1.5 mph 7 mph 78.8% 0.00 in 239 W/m2
17:09 75.3 °F 68.4 °F 29.81 in South 2 mph 6 mph 79.1% 0.00 in 176 W/m2
17:14 75 °F 68.5 °F 29.81 in South 1 mph 6 mph 80% 0.00 in 183 W/m2
17:19 74.9 °F 68.7 °F 29.81 in South 0.6 mph 6 mph 81% 0.00 in 163 W/m2
17:24 74.9 °F 68.7 °F 29.81 in SSW 0.2 mph 6 mph 81.2% 0.00 in 128 W/m2
17:29 74.9 °F 68.7 °F 29.80 in SSW 0.5 mph 6 mph 81% 0.00 in 98 W/m2
17:34 74.8 °F 68.5 °F 29.80 in SSW 1.4 mph 6 mph 81% 0.00 in 95 W/m2
17:39 74.5 °F 68.3 °F 29.80 in SSE 1.7 mph 9 mph 81% 0.00 in 93 W/m2
17:44 74.2 °F 68.2 °F 29.79 in South 1.1 mph 9 mph 81.4% 0.00 in 93 W/m2
18:00 73.5 °F 68.4 °F 29.79 in South 1 mph 11 mph 84% 0.00 in 76 W/m2
18:30 72.7 °F 68.6 °F 29.79 in South 1 mph 9 mph 87% 0.00 in 38 W/m2
19:00 71.5 °F 68.4 °F 29.78 in South 1 mph 9 mph 90% 0.00 in 17 W/m2
19:30 71.2 °F 68.4 °F 29.75 in South 1 mph 9 mph 91% 0.00 in 28 W/m2
20:04 70.4 °F 67.3 °F 29.74 in SSW 0.6 mph 2 mph 90% 0.00 in 0 W/m2
20:09 70.3 °F 67.4 °F 29.75 in SSW 0.6 mph 3 mph 90.5% 0.00 in 0 W/m2
20:14 70.3 °F 67.5 °F 29.75 in SSW 0.6 mph 3 mph 91% 0.00 in 0 W/m2
20:19 70.2 °F 67.4 °F 29.75 in SSW 0.8 mph 3 mph 91% 0.00 in 0 W/m2
20:24 70.1 °F 67.3 °F 29.76 in SSW 1 mph 5 mph 91% 0.00 in 0 W/m2
20:29 69.9 °F 67.1 °F 29.76 in South 2.3 mph 6 mph 90.7% 0.00 in 0 W/m2
20:34 69.8 °F 66.7 °F 29.76 in South 2.7 mph 9 mph 90% 0.00 in 0 W/m2
20:39 69.6 °F 66.5 °F 29.76 in SSW 1.7 mph 9 mph 90% 0.00 in 0 W/m2
20:44 69.4 °F 66.4 °F 29.76 in SSW 2 mph 9 mph 90% 0.00 in 0 W/m2
20:49 69.3 °F 65.9 °F 29.76 in South 2.3 mph 9 mph 89% 0.00 in 0 W/m2
20:54 69.1 °F 65.7 °F 29.75 in South 2.2 mph 9 mph 89% 0.00 in 0 W/m2
20:59 69 °F 65.6 °F 29.75 in South 1.7 mph 9 mph 89% 0.00 in 0 W/m2
21:04 68.9 °F 65.5 °F 29.76 in South 1.4 mph 9 mph 89% 0.00 in 0 W/m2
21:09 68.8 °F 65.4 °F 29.77 in South 1.9 mph 7 mph 89% 0.00 in 0 W/m2
21:14 68.7 °F 65.4 °F 29.77 in SSW 1.6 mph 7 mph 89% 0.00 in 0 W/m2
21:19 68.7 °F 65.3 °F 29.77 in SSW 1.1 mph 7 mph 89% 0.00 in 0 W/m2
21:24 68.6 °F 65.2 °F 29.77 in SSW 1.1 mph 7 mph 89% 0.00 in 0 W/m2
21:29 68.6 °F 65.2 °F 29.78 in SSW 1.8 mph 10 mph 89% 0.00 in 0 W/m2
21:34 68.4 °F 65.1 °F 29.78 in SSW 0.6 mph 10 mph 89% 0.00 in 0 W/m2
21:39 68.4 °F 65 °F 29.78 in SW 0.6 mph 5 mph 89% 0.00 in 0 W/m2
21:44 68.3 °F 64.9 °F 29.78 in SSW 0.6 mph 5 mph 89% 0.00 in 0 W/m2
21:49 68.1 °F 64.6 °F 29.78 in SW 0.4 mph 5 mph 88.6% 0.00 in 0 W/m2
21:54 67.9 °F 64.3 °F 29.78 in SSW 0.7 mph 5 mph 88% 0.00 in 0 W/m2
21:59 67.8 °F 64.2 °F 29.78 in SSW 0.3 mph 5 mph 88% 0.00 in 0 W/m2
22:04 67.7 °F 64 °F 29.78 in SSW 0.3 mph 5 mph 88% 0.00 in 0 W/m2
22:09 67.6 °F 63.9 °F 29.78 in SSW 0.3 mph 2 mph 88% 0.00 in 0 W/m2
22:14 67.5 °F 64 °F 29.78 in South 0.8 mph 4 mph 88.4% 0.00 in 0 W/m2
22:19 67.4 °F 64.1 °F 29.77 in South 0.2 mph 4 mph 89% 0.00 in 0 W/m2
22:24 67.4 °F 64.1 °F 29.77 in SSW 0.4 mph 4 mph 89% 0.00 in 0 W/m2
22:29 67.3 °F 63.9 °F 29.77 in SSW 0.4 mph 4 mph 88.8% 0.00 in 0 W/m2
22:34 67.3 °F 63.8 °F 29.77 in South 0.7 mph 6 mph 88.5% 0.00 in 0 W/m2
22:39 67.2 °F 63.5 °F 29.77 in South 0.5 mph 6 mph 88% 0.00 in 0 W/m2
22:44 67.2 °F 63.5 °F 29.77 in South 0.5 mph 6 mph 88% 0.00 in 0 W/m2
22:49 67.1 °F 63.4 °F 29.77 in South 0.4 mph 6 mph 88% 0.00 in 0 W/m2
22:54 67.1 °F 63.7 °F 29.77 in South 0.6 mph 6 mph 88.9% 0.00 in 0 W/m2
22:59 67 °F 63.7 °F 29.77 in South 0.2 mph 6 mph 89% 0.00 in 0 W/m2
23:04 67 °F 63.6 °F 29.77 in South 0.1 mph 6 mph 89% 0.00 in 0 W/m2
23:09 66.9 °F 63.6 °F 29.77 in South 0.2 mph 2 mph 89% 0.00 in 0 W/m2
23:14 66.9 °F 63.6 °F 29.77 in South 0.2 mph 2 mph 89% 0.00 in 0 W/m2
23:19 66.8 °F 63.5 °F 29.77 in South 0.2 mph 2 mph 89% 0.00 in 0 W/m2
23:24 66.8 °F 63.5 °F 29.77 in Calm   2 mph 89% 0.00 in 0 W/m2
23:29 66.8 °F 63.4 °F 29.77 in Calm   2 mph 89% 0.00 in 0 W/m2
23:34 66.7 °F 63.4 °F 29.77 in SSW 0.1 mph 2 mph 89% 0.00 in 0 W/m2
23:39 66.7 °F 63.3 °F 29.77 in Calm   2 mph 89% 0.00 in 0 W/m2
23:44 66.6 °F 63.3 °F 29.77 in Calm   2 mph 89% 0.00 in 0 W/m2
23:49 66.5 °F 63.2 °F 29.77 in Calm   2 mph 89% 0.00 in 0 W/m2
23:54 66.5 °F 63.2 °F 29.77 in Calm   2 mph 89% 0.00 in 0 W/m2
23:58 66.4 °F 63.1 °F 29.77 in SSW 0.3 mph 2 mph 89% 0.00 in 0 W/m2
Hartford County Weather
Compliments of Weather Underground - 2 mb